Time;durP1;ratioP1;P1;durP2;ratioP2;P2;SDS_P1;SDS_P2;PMS_P1;PMS_P2;Temp;Humidity;BMP_temperature;BMP_pressure;BME280_temperature;BME280_humidity;BME280_pressure;Samples;Min_cycle;Max_cycle;Signal;HPM_P1;HPM_P2
2021/06/02 00:02:19;;;;;;;20.90;14.25;;;307.70;2304.00;;;;;;4957376;28;20038;-85
2021/06/02 00:04:48;;;;;;;16.17;12.85;;;307.70;2304.00;;;;;;4979749;28;20371;-83
2021/06/02 00:08:00;;;;;;;20.75;13.82;;;307.60;2304.00;;;;;;4979866;28;20038;-85
2021/06/02 00:10:28;;;;;;;20.13;12.20;;;307.60;2304.00;;;;;;4991833;28;20042;-85
2021/06/02 00:12:54;;;;;;;25.08;11.73;;;307.50;2304.00;;;;;;4979629;28;20111;-85
2021/06/02 00:15:21;;;;;;;13.25;10.80;;;307.50;2304.00;;;;;;4979787;28;20508;-85
2021/06/02 00:17:50;;;;;;;14.82;10.43;;;282.30;2278.40;;;;;;4979862;28;20030;-85
2021/06/02 00:20:30;;;;;;;11.50;9.68;;;307.40;2304.00;;;;;;4979732;28;20654;-85
2021/06/02 00:22:57;;;;;;;12.85;9.55;;;307.40;2304.00;;;;;;4917409;28;20032;-85
2021/06/02 00:25:23;;;;;;;14.77;10.98;;;307.40;2304.00;;;;;;4970900;28;20035;-85
2021/06/02 00:27:54;;;;;;;16.30;11.68;;;307.30;2304.00;;;;;;4978800;28;20123;-84
2021/06/02 00:30:21;;;;;;;16.70;12.35;;;307.40;2304.00;;;;;;4979531;28;20034;-84
2021/06/02 00:32:48;;;;;;;19.13;14.25;;;307.30;2304.00;;;;;;4979482;28;20042;-85
2021/06/02 00:35:21;;;;;;;23.05;17.25;;;282.50;2278.40;;;;;;4979689;28;20402;-84
2021/06/02 00:37:51;;;;;;;24.17;17.85;;;307.20;2304.00;;;;;;4979622;28;20061;-85
2021/06/02 00:40:50;;;;;;;21.90;16.55;;;307.20;2304.00;;;;;;4979186;28;20041;-84
2021/06/02 00:43:18;;;;;;;22.23;16.30;;;307.30;2304.00;;;;;;4978592;28;20031;-85
2021/06/02 00:45:46;;;;;;;25.38;17.55;;;307.30;2304.00;;;;;;4979243;28;20029;-85
2021/06/02 00:48:18;;;;;;;35.00;20.05;;;307.30;2304.00;;;;;;4979052;28;20492;-85
2021/06/02 00:50:53;;;;;;;25.48;17.73;;;307.30;2304.00;;;;;;4979118;28;20375;-84
2021/06/02 00:53:21;;;;;;;24.05;15.25;;;282.50;2278.40;;;;;;4996557;28;20027;-84
2021/06/02 00:55:48;;;;;;;23.27;15.50;;;282.50;2278.40;;;;;;4978718;28;20034;-84
2021/06/02 00:58:28;;;;;;;28.52;16.13;;;307.20;2304.00;;;;;;4979020;28;20108;-85
2021/06/02 01:00:56;;;;;;;74.68;42.22;;;307.20;2304.00;;;;;;4978755;28;20037;-85
2021/06/02 01:03:23;;;;;;;45.88;29.23;;;282.50;2278.40;;;;;;4978911;28;20076;-85
2021/06/02 01:05:54;;;;;;;39.17;23.00;;;282.50;2278.40;;;;;;4978715;28;20030;-84
2021/06/02 01:08:53;;;;;;;27.15;18.05;;;307.20;2304.00;;;;;;4978801;28;20125;-85
2021/06/02 01:11:45;;;;;;;28.02;17.00;;;307.20;2304.00;;;;;;4978191;28;20402;-84
2021/06/02 01:14:21;;;;;;;22.88;16.13;;;282.50;2278.40;;;;;;4991571;28;20084;-85
2021/06/02 01:16:47;;;;;;;;;;;282.50;2278.40;;;;;;4978942;28;20030;-85
2021/06/02 01:19:21;;;;;;;34.22;19.92;;;282.50;2278.40;;;;;;4978623;28;19922;-84
2021/06/02 01:22:02;;;;;;;39.80;25.88;;;282.50;2278.40;;;;;;4994443;28;20038;-85
2021/06/02 01:24:32;;;;;;;53.25;34.95;;;282.50;2278.40;;;;;;4995960;28;20478;-83
2021/06/02 01:27:04;;;;;;;36.97;26.02;;;282.30;2278.40;;;;;;4978541;28;20061;-84
2021/06/02 01:29:31;;;;;;;51.10;33.97;;;282.30;2278.40;;;;;;4961931;28;20030;-85
2021/06/02 01:42:39;;;;;;;46.50;31.88;;;282.20;2278.40;;;;;;4984438;28;20034;-85
2021/06/02 01:45:59;;;;;;;26.38;18.45;;;282.20;2278.40;;;;;;4958062;28;20050;-84
2021/06/02 01:49:25;;;;;;;16.97;13.83;;;282.10;2278.40;;;;;;4995958;28;20031;-84
2021/06/02 01:52:52;;;;;;;19.27;14.35;;;282.10;2278.40;;;;;;4967471;28;20698;-85
2021/06/02 01:56:15;;;;;;;27.73;18.45;;;282.00;2278.40;;;;;;4995513;28;20536;-85
2021/06/02 01:59:34;;;;;;;18.65;13.25;;;282.10;2278.40;;;;;;4977639;28;20023;-83
2021/06/02 02:02:55;;;;;;;46.20;31.13;;;282.20;2278.40;;;;;;4978239;28;20111;-84
2021/06/02 02:06:14;;;;;;;64.43;42.67;;;282.00;2278.40;;;;;;4939677;28;20026;-84
2021/06/02 02:09:31;;;;;;;41.15;28.90;;;281.90;2278.40;;;;;;4916581;28;20065;-84
2021/06/02 02:12:59;;;;;;;37.42;25.48;;;281.90;2278.40;;;;;;4984355;28;20050;-84
2021/06/02 02:16:02;;;;;;;34.92;23.00;;;281.80;2278.40;;;;;;4980108;28;20049;-85
2021/06/02 02:18:47;;;;;;;29.77;19.00;;;281.90;2278.40;;;;;;4962705;28;20043;-84
2021/06/02 02:21:57;;;;;;;19.05;14.35;;;282.00;2278.40;;;;;;4975024;28;20035;-86
2021/06/02 02:25:09;;;;;;;19.77;12.60;;;281.80;2278.40;;;;;;4958190;28;20478;-83
2021/06/02 02:28:16;;;;;;;12.85;9.55;;;281.90;2278.40;;;;;;4952893;28;20105;-85
2021/06/02 04:35:14;;;;;;;11.57;9.05;;;256.90;2252.80;;;;;;4956394;29;20129;-85
2021/06/02 04:41:20;;;;;;;15.23;9.43;;;281.70;2278.40;;;;;;4956315;29;20078;-85
2021/06/02 04:43:51;;;;;;;14.63;9.82;;;281.70;2278.40;;;;;;4946323;29;20078;-83
2021/06/02 04:46:20;;;;;;;11.10;9.27;;;281.60;2278.40;;;;;;4935784;29;20127;-84
2021/06/02 04:49:34;;;;;;;13.57;8.43;;;281.70;2278.40;;;;;;4939545;29;20173;-85
2021/06/02 05:25:49;;;;;;;12.05;9.10;;;282.20;2278.40;;;;;;4976911;28;20086;-85
2021/06/02 05:28:41;;;;;;;16.05;9.70;;;282.50;2278.40;;;;;;4977003;28;20105;-86
2021/06/02 05:32:03;;;;;;;13.95;9.10;;;282.50;2278.40;;;;;;4978164;28;20034;-85
2021/06/02 05:35:20;;;;;;;16.85;9.75;;;282.50;2278.40;;;;;;4994193;28;20486;-86
2021/06/02 05:38:31;;;;;;;13.23;8.60;;;307.30;2304.00;;;;;;4995918;28;20045;-84
2021/06/02 05:45:24;;;;;;;11.43;8.75;;;307.40;2304.00;;;;;;4951783;29;20056;-86
2021/06/02 05:48:31;;;;;;;14.18;9.05;;;307.50;2304.00;;;;;;4910945;29;20514;-85
2021/06/02 05:52:00;;;;;;;15.15;9.43;;;307.60;2304.00;;;;;;4906684;29;20051;-85
2021/06/02 05:59:24;;;;;;;10.82;8.32;;;307.90;2304.00;;;;;;4954168;29;20094;-87
2021/06/02 06:02:36;;;;;;;17.60;9.65;;;308.10;2304.00;;;;;;4951164;28;20074;-87
2021/06/02 06:05:38;;;;;;;13.80;9.35;;;332.80;2329.60;;;;;;4863512;29;20029;-85
2021/06/02 06:08:30;;;;;;;10.52;8.93;;;333.10;2329.60;;;;;;4866159;29;20036;-86
2021/06/02 06:11:40;;;;;;;17.95;11.77;;;333.30;2329.60;;;;;;4916078;29;20036;-86
2021/06/02 06:14:38;;;;;;;19.58;11.38;;;333.40;2329.60;;;;;;4992451;28;20169;-84
2021/06/02 06:17:29;;;;;;;15.40;10.38;;;333.70;2329.60;;;;;;4993507;28;20101;-85
2021/06/02 06:20:22;;;;;;;15.00;8.48;;;333.70;2329.60;;;;;;4993801;28;20053;-86
2021/06/02 06:23:11;;;;;;;12.90;7.00;;;333.70;2329.60;;;;;;4993485;28;20026;-86
2021/06/02 06:26:07;;;;;;;19.85;8.05;;;333.70;2329.60;;;;;;4993206;28;20393;-84
2021/06/02 06:28:53;;;;;;;19.10;9.85;;;358.40;2329.60;;;;;;4993329;28;20118;-84
2021/06/02 06:31:23;;;;;;;13.90;9.02;;;358.60;2329.60;;;;;;4993212;28;20553;-84
2021/06/02 06:33:51;;;;;;;21.80;10.00;;;358.90;2329.60;;;;;;4993831;28;20033;-84
2021/06/02 06:36:21;;;;;;;15.57;9.65;;;359.00;2329.60;;;;;;4993401;28;20026;-84
2021/06/02 06:39:17;;;;;;;12.23;7.85;;;359.20;2329.60;;;;;;4992964;28;20049;-84
2021/06/02 06:41:47;;;;;;;11.18;7.00;;;359.20;2329.60;;;;;;4993655;28;20166;-85
2021/06/02 06:44:15;;;;;;;10.43;6.88;;;359.20;2329.60;;;;;;4993141;28;20057;-86
2021/06/02 06:46:42;;;;;;;16.52;7.78;;;359.30;2329.60;;;;;;4993572;28;20121;-83
2021/06/02 06:49:10;;;;;;;9.35;6.35;;;384.20;2329.60;;;;;;4993751;28;20026;-82
2021/06/02 06:51:39;;;;;;;16.67;8.32;;;384.50;2329.60;;;;;;4993378;28;20419;-83
2021/06/02 06:54:12;;;;;;;11.15;7.93;;;384.70;2329.60;;;;;;4993615;28;20081;-83
2021/06/02 06:56:39;;;;;;;11.65;7.80;;;384.70;2329.60;;;;;;4993357;28;20030;-83
2021/06/02 06:59:05;;;;;;;17.95;8.05;;;384.80;2329.60;;;;;;4993885;28;20106;-81
2021/06/02 07:01:33;;;;;;;14.10;7.57;;;409.60;2355.20;;;;;;4994387;28;20031;-82
2021/06/02 07:04:00;;;;;;;10.43;7.18;;;409.70;2355.20;;;;;;4993246;28;20459;-83
2021/06/02 07:06:26;;;;;;;9.27;7.22;;;409.90;2355.20;;;;;;4993159;28;20029;-80
2021/06/02 07:08:52;;;;;;;9.75;7.00;;;409.90;2355.20;;;;;;4994236;28;20046;-79
2021/06/02 07:11:19;;;;;;;9.60;6.90;;;409.80;2355.20;;;;;;4994441;28;20069;-83
2021/06/02 07:13:49;;;;;;;13.93;9.23;;;410.00;2355.20;;;;;;4994256;28;20030;-81
2021/06/02 07:16:15;;;;;;;11.10;6.97;;;410.40;2355.20;;;;;;4994601;28;20029;-85
2021/06/02 07:18:46;;;;;;;14.27;7.35;;;410.20;2355.20;;;;;;4993251;28;20097;-81
2021/06/02 07:21:14;;;;;;;17.95;9.60;;;435.20;2355.20;;;;;;4993388;28;20035;-85
2021/06/02 07:23:41;;;;;;;21.23;13.05;;;435.50;2355.20;;;;;;4993042;28;20026;-86
2021/06/02 07:26:08;;;;;;;15.52;7.80;;;435.60;2355.20;;;;;;4993671;28;20133;-87
2021/06/02 07:28:39;;;;;;;11.93;6.93;;;435.70;2355.20;;;;;;4994357;28;20074;-85
2021/06/02 07:31:09;;;;;;;11.45;6.47;;;435.60;2355.20;;;;;;4986552;28;20033;-83
2021/06/02 07:33:35;;;;;;;8.13;5.63;;;435.60;2355.20;;;;;;4980750;28;20029;-84
2021/06/02 07:36:02;;;;;;;7.30;4.85;;;435.80;2355.20;;;;;;4976620;28;20018;-84
2021/06/02 07:38:29;;;;;;;17.40;6.55;;;435.90;2355.20;;;;;;4978067;28;20050;-83
2021/06/02 07:40:55;;;;;;;8.52;5.88;;;436.10;2355.20;;;;;;4997506;28;20032;-83
2021/06/02 07:43:21;;;;;;;16.00;5.32;;;460.80;2380.80;;;;;;4997509;28;20077;-82
2021/06/02 07:45:47;;;;;;;14.70;5.28;;;460.80;2380.80;;;;;;4979816;28;20034;-80
2021/06/02 07:48:13;;;;;;;9.23;5.63;;;460.90;2380.80;;;;;;4997094;28;20022;-81
2021/06/02 07:50:40;;;;;;;8.90;5.60;;;461.00;2380.80;;;;;;4980372;28;20117;-82
2021/06/02 07:53:06;;;;;;;7.07;4.50;;;461.10;2380.80;;;;;;4979714;28;20077;-81
2021/06/02 07:55:32;;;;;;;7.88;5.15;;;461.10;2380.80;;;;;;4996707;28;20426;-81
2021/06/02 07:57:58;;;;;;;11.38;5.07;;;461.20;2380.80;;;;;;4979398;28;20041;-80
2021/06/02 08:00:24;;;;;;;8.38;4.93;;;461.50;2380.80;;;;;;4980495;28;20546;-84
2021/06/02 08:02:50;;;;;;;16.67;7.35;;;461.60;2380.80;;;;;;4980560;28;20113;-85
2021/06/02 08:05:16;;;;;;;11.52;5.13;;;461.70;2380.80;;;;;;4980319;28;20125;-84
2021/06/02 08:07:43;;;;;;;11.82;4.85;;;486.50;2380.80;;;;;;4979642;28;20058;-83
2021/06/02 08:10:10;;;;;;;8.73;4.85;;;486.60;2380.80;;;;;;4979686;28;20375;-81
2021/06/02 08:12:36;;;;;;;10.93;3.80;;;486.90;2380.80;;;;;;4997346;28;20068;-81
2021/06/02 08:15:04;;;;;;;8.93;3.75;;;487.00;2380.80;;;;;;4979815;28;20427;-82
2021/06/02 08:17:29;;;;;;;10.32;3.72;;;487.20;2380.80;;;;;;4979683;28;20366;-84
2021/06/02 08:19:55;;;;;;;9.65;3.38;;;487.20;2380.80;;;;;;4979966;28;20034;-83
2021/06/02 08:22:21;;;;;;;10.95;5.20;;;512.00;2380.80;;;;;;4979112;28;20032;-81
2021/06/02 08:24:47;;;;;;;7.75;3.60;;;487.30;2355.20;;;;;;4979744;28;20085;-81
2021/06/02 08:27:13;;;;;;;13.95;4.57;;;487.10;2329.60;;;;;;4997095;28;20105;-80
2021/06/02 08:29:40;;;;;;;6.13;3.10;;;512.00;2304.00;;;;;;4996640;28;20086;-81
2021/06/02 08:32:07;;;;;;;7.18;2.75;;;487.00;2278.40;;;;;;4979375;28;20030;-77
2021/06/02 08:34:33;;;;;;;5.85;3.10;;;487.30;2278.40;;;;;;4979466;28;20121;-77
2021/06/02 08:36:59;;;;;;;7.72;3.15;;;487.10;2278.40;;;;;;4978907;28;20463;-78
2021/06/02 08:39:25;;;;;;;6.32;3.30;;;487.00;2227.20;;;;;;4978915;28;20419;-77
2021/06/02 08:41:51;;;;;;;10.77;4.15;;;487.00;2304.00;;;;;;4976358;28;20118;-80
2021/06/02 08:44:19;;;;;;;7.28;2.75;;;487.00;2252.80;;;;;;4993955;28;20393;-78
2021/06/02 08:46:47;;;;;;;6.30;3.53;;;487.00;2227.20;;;;;;4995819;28;20386;-78
2021/06/02 08:49:15;;;;;;;5.22;3.10;;;486.80;2278.40;;;;;;4977944;28;20030;-77
2021/06/02 08:51:41;;;;;;;8.82;4.28;;;486.80;2304.00;;;;;;4978518;28;20022;-76
2021/06/02 08:54:07;;;;;;;8.27;3.17;;;486.80;2329.60;;;;;;4996307;28;20140;-79
2021/06/02 08:56:38;;;;;;;6.65;3.50;;;486.90;2278.40;;;;;;4978787;28;20054;-78
2021/06/02 08:59:04;;;;;;;10.63;4.03;;;487.00;2380.80;;;;;;4978831;28;20037;-77
2021/06/02 09:01:30;;;;;;;7.30;3.92;;;487.30;2329.60;;;;;;4996343;28;20030;-76
2021/06/02 09:03:58;;;;;;;8.43;3.42;;;512.10;2227.20;;;;;;4995764;28;20047;-76
2021/06/02 09:06:24;;;;;;;8.23;3.08;;;487.30;2201.60;;;;;;4978895;28;20069;-76
2021/06/02 09:08:52;;;;;;;4.38;2.92;;;487.20;2329.60;;;;;;4978903;28;20049;-76
2021/06/02 09:11:19;;;;;;;5.78;3.10;;;487.20;2227.20;;;;;;4995805;28;20042;-76
2021/06/02 09:13:46;;;;;;;5.43;3.20;;;487.00;2201.60;;;;;;4978940;28;20026;-78
2021/06/02 09:16:23;;;;;;;9.57;4.63;;;486.90;2252.80;;;;;;4978682;28;20116;-75
2021/06/02 09:18:57;;;;;;;5.47;2.70;;;486.80;2278.40;;;;;;4994761;28;20022;-80
2021/06/02 09:21:23;;;;;;;7.97;3.25;;;486.70;2227.20;;;;;;4978156;28;20490;-76
2021/06/02 09:23:49;;;;;;;7.60;3.30;;;486.60;2329.60;;;;;;4977988;28;20065;-78
2021/06/02 09:26:26;;;;;;;6.10;2.97;;;486.60;2278.40;;;;;;4994630;28;20110;-79
2021/06/02 09:29:03;;;;;;;6.93;3.05;;;486.60;2329.60;;;;;;4978272;28;20056;-78
2021/06/02 09:31:38;;;;;;;13.30;9.90;;;486.60;2304.00;;;;;;4994284;28;20053;-79
2021/06/02 09:34:25;;;;;;;6.30;4.22;;;486.70;2380.80;;;;;;4977213;28;20077;-78
2021/06/02 09:37:13;;;;;;;18.83;4.10;;;486.90;2304.00;;;;;;4978250;28;20410;-75
2021/06/02 09:39:42;;;;;;;5.35;2.90;;;487.10;2252.80;;;;;;4978066;28;20430;-77
2021/06/02 09:42:18;;;;;;;7.03;3.55;;;487.10;2176.00;;;;;;4978282;28;20034;-77
2021/06/02 09:45:06;;;;;;;6.55;3.80;;;487.20;2227.20;;;;;;4978465;28;20037;-81
2021/06/02 09:47:57;;;;;;;7.43;3.90;;;512.40;2252.80;;;;;;4978011;28;20421;-75
2021/06/02 09:50:30;;;;;;;7.65;3.17;;;512.90;2176.00;;;;;;4977886;28;20478;-74
2021/06/02 09:52:57;;;;;;;5.65;3.15;;;538.00;2048.00;;;;;;4977630;28;20126;-76
2021/06/02 09:55:26;;;;;;;5.78;2.72;;;538.40;2099.20;;;;;;4977981;28;20463;-77
2021/06/02 09:57:55;;;;;;;7.05;3.00;;;563.30;1920.00;;;;;;4977788;28;20352;-78
2021/06/02 10:00:21;;;;;;;8.07;3.40;;;563.60;2048.00;;;;;;4976831;28;20041;-77
2021/06/02 10:03:14;;;;;;;9.32;3.28;;;563.60;1920.00;;;;;;4978104;28;20061;-83
2021/06/02 10:05:49;;;;;;;8.38;3.50;;;538.50;1868.80;;;;;;4978130;28;20411;-79
2021/06/02 10:08:28;;;;;;;6.45;2.30;;;538.10;1792.00;;;;;;4977759;28;20081;-80
2021/06/02 10:10:55;;;;;;;4.63;2.50;;;537.80;1740.80;;;;;;4977796;28;20035;-79
2021/06/02 10:13:23;;;;;;;5.13;2.60;;;512.90;1792.00;;;;;;4995264;28;20426;-80
2021/06/02 10:15:49;;;;;;;10.90;4.57;;;512.80;1766.40;;;;;;4977442;28;20081;-80
2021/06/02 10:18:27;;;;;;;4.57;2.95;;;512.70;1843.20;;;;;;4994942;28;20434;-80
2021/06/02 10:20:57;;;;;;;10.82;5.57;;;537.70;1817.60;;;;;;4995089;28;20030;-80
2021/06/02 10:23:30;;;;;;;16.58;5.20;;;538.50;1817.60;;;;;;4977491;28;20429;-80
2021/06/02 10:25:57;;;;;;;8.27;3.88;;;563.40;1843.20;;;;;;4977465;28;20054;-80
2021/06/02 10:28:25;;;;;;;4.63;3.05;;;563.60;1792.00;;;;;;4977513;28;20029;-82
2021/06/02 10:30:51;;;;;;;4.07;2.30;;;563.20;1638.40;;;;;;4977616;28;20509;-79
2021/06/02 10:33:17;;;;;;;5.22;3.45;;;538.30;1612.80;;;;;;4977540;28;20030;-78
2021/06/02 10:35:43;;;;;;;7.20;3.22;;;538.30;1638.40;;;;;;4976890;28;20068;-76
2021/06/02 10:38:10;;;;;;;8.07;2.80;;;538.10;1664.00;;;;;;4994253;28;20047;-78
2021/06/02 10:40:40;;;;;;;5.32;3.15;;;537.90;1638.40;;;;;;4976999;28;20114;-77
2021/06/02 10:43:16;;;;;;;6.55;2.85;;;537.90;1689.60;;;;;;4976837;28;20375;-77
2021/06/02 10:45:55;;;;;;;7.82;4.13;;;537.80;1715.20;;;;;;4977046;28;20034;-76
2021/06/02 10:49:00;;;;;;;8.18;2.95;;;537.80;1766.40;;;;;;4977401;28;20037;-76
2021/06/02 10:51:27;;;;;;;12.43;3.50;;;537.80;1792.00;;;;;;4899486;29;20396;-78
2021/06/02 10:54:09;;;;;;;6.90;3.47;;;537.80;1766.40;;;;;;4980857;28;20030;-76
2021/06/02 10:56:36;;;;;;;5.82;2.97;;;537.80;1792.00;;;;;;4993995;28;20034;-77
2021/06/02 10:59:23;;;;;;;6.57;3.45;;;537.80;1740.80;;;;;;4977012;28;20385;-75
2021/06/02 11:02:13;;;;;;;9.82;3.53;;;538.10;1792.00;;;;;;4994012;28;20387;-77
2021/06/02 11:05:04;;;;;;;9.65;4.25;;;538.10;1740.80;;;;;;4994107;28;20022;-77
2021/06/02 11:07:33;;;;;;;7.78;4.05;;;538.20;1689.60;;;;;;4976816;28;20034;-77
2021/06/02 11:10:01;;;;;;;6.60;3.35;;;538.50;1664.00;;;;;;4976325;28;20034;-77
2021/06/02 11:12:49;;;;;;;6.80;2.85;;;563.40;1587.20;;;;;;4979331;28;20533;-79
2021/06/02 11:15:46;;;;;;;7.57;4.00;;;563.50;1587.20;;;;;;4982665;28;20026;-77
2021/06/02 11:18:12;;;;;;;6.20;2.75;;;563.40;1587.20;;;;;;4982826;28;20117;-78
2021/06/02 11:20:43;;;;;;;6.25;3.80;;;538.50;1561.60;;;;;;4983207;28;20525;-76
2021/06/02 11:23:10;;;;;;;7.68;4.40;;;538.50;1587.20;;;;;;5000688;28;20022;-78
2021/06/02 11:25:37;;;;;;;7.88;6.05;;;563.50;1612.80;;;;;;4982928;28;20181;-79
2021/06/02 11:28:06;;;;;;;6.38;3.30;;;563.60;1638.40;;;;;;4983118;28;20030;-76
2021/06/02 11:30:32;;;;;;;7.38;4.60;;;564.10;1664.00;;;;;;4982978;28;20034;-77
2021/06/02 11:33:06;;;;;;;9.68;5.18;;;563.90;1638.40;;;;;;4999462;28;20034;-79
2021/06/02 11:35:53;;;;;;;9.25;5.50;;;563.70;1715.20;;;;;;4982925;28;20398;-76
2021/06/02 11:38:20;;;;;;;7.55;4.80;;;563.60;1664.00;;;;;;4999719;28;20046;-78
2021/06/02 11:40:46;;;;;;;8.88;4.20;;;563.30;1638.40;;;;;;4982733;28;20449;-78
2021/06/02 11:43:13;;;;;;;7.05;4.60;;;563.20;1740.80;;;;;;5000421;28;20030;-76
2021/06/02 11:45:45;;;;;;;6.25;2.90;;;538.50;1715.20;;;;;;5000188;28;20029;-76
2021/06/02 11:48:12;;;;;;;8.18;4.78;;;538.50;1587.20;;;;;;4982935;28;20467;-78
2021/06/02 11:50:38;;;;;;;5.88;3.10;;;563.90;1638.40;;;;;;4982851;28;20038;-75
2021/06/02 11:53:05;;;;;;;6.82;2.75;;;588.90;1561.60;;;;;;4982612;28;20458;-75
2021/06/02 11:55:33;;;;;;;4.85;3.13;;;589.60;1561.60;;;;;;4982941;28;20030;-76
2021/06/02 11:58:00;;;;;;;10.20;4.05;;;614.50;1510.40;;;;;;5000601;28;20018;-77
2021/06/02 12:00:33;;;;;;;7.28;4.10;;;614.80;1484.80;;;;;;4981753;28;20026;-76
2021/06/02 12:03:02;;;;;;;8.20;3.55;;;614.40;1484.80;;;;;;4982004;28;20355;-75
2021/06/02 12:05:42;;;;;;;5.15;3.92;;;589.40;1510.40;;;;;;4981853;28;20050;-76
2021/06/02 12:08:15;;;;;;;8.63;6.35;;;589.30;1587.20;;;;;;4999591;28;20022;-76
2021/06/02 12:10:48;;;;;;;11.35;4.85;;;589.40;1612.80;;;;;;4999533;28;20036;-78
2021/06/02 12:13:19;;;;;;;7.38;3.65;;;614.70;1612.80;;;;;;4981233;28;20034;-76
2021/06/02 12:15:46;;;;;;;5.40;3.40;;;615.00;1433.60;;;;;;4981806;28;20026;-77
2021/06/02 12:18:27;;;;;;;4.60;3.00;;;615.00;1382.40;;;;;;4995319;28;20030;-77
2021/06/02 12:21:19;;;;;;;7.00;3.20;;;640.00;1433.60;;;;;;4982272;28;20105;-76
2021/06/02 12:23:51;;;;;;;6.30;2.90;;;640.40;1536.00;;;;;;4982415;28;20157;-78
2021/06/02 12:26:35;;;;;;;9.90;3.80;;;640.50;1510.40;;;;;;4986178;28;20129;-78
2021/06/02 12:29:09;;;;;;;5.47;3.88;;;640.80;1433.60;;;;;;4990288;28;20018;-77
2021/06/02 12:31:41;;;;;;;14.77;7.53;;;640.00;1382.40;;;;;;4986642;28;20030;-75
2021/06/02 12:34:23;;;;;;;12.32;4.93;;;614.60;1459.20;;;;;;4973139;28;20038;-75
2021/06/02 12:36:53;;;;;;;7.10;3.33;;;615.30;1484.80;;;;;;4971310;28;20113;-76
2021/06/02 12:39:27;;;;;;;10.25;3.60;;;640.00;1356.80;;;;;;4996576;28;20735;-75
2021/06/02 12:41:54;;;;;;;10.18;3.15;;;640.50;1356.80;;;;;;4996276;28;20368;-76
2021/06/02 12:44:31;;;;;;;6.57;3.90;;;640.50;1331.20;;;;;;4996709;28;20525;-76
2021/06/02 12:47:09;;;;;;;10.05;3.92;;;640.60;1254.40;;;;;;4979336;28;20033;-75
2021/06/02 12:49:40;;;;;;;8.32;3.35;;;640.90;1305.60;;;;;;4992172;28;20026;-78
2021/06/02 12:52:06;;;;;;;9.20;3.58;;;665.60;1280.00;;;;;;4968598;28;20058;-76
2021/06/02 12:54:32;;;;;;;5.43;2.83;;;665.70;1280.00;;;;;;4977109;28;20026;-77
2021/06/02 12:56:59;;;;;;;14.27;4.15;;;665.70;1254.40;;;;;;4992246;28;20095;-76
2021/06/02 12:59:33;;;;;;;5.47;3.05;;;666.00;1305.60;;;;;;4976588;28;20022;-76
2021/06/02 13:02:05;;;;;;;4.55;2.67;;;665.60;1228.80;;;;;;4992450;28;20027;-78
2021/06/02 13:04:33;;;;;;;4.80;2.50;;;665.60;1254.40;;;;;;4978459;28;20034;-76
2021/06/02 13:06:59;;;;;;;5.07;3.33;;;640.50;1254.40;;;;;;4996281;28;20023;-76
2021/06/02 13:09:26;;;;;;;6.20;3.85;;;665.60;1203.20;;;;;;4978411;28;20411;-76
2021/06/02 13:11:53;;;;;;;4.63;3.10;;;665.90;1203.20;;;;;;4978858;28;20030;-75
2021/06/02 13:14:31;;;;;;;5.80;3.28;;;666.00;1203.20;;;;;;4995938;28;20026;-76
2021/06/02 13:16:56;;;;;;;7.97;3.50;;;640.60;1331.20;;;;;;4994754;28;20030;-76
2021/06/02 13:19:44;;;;;;;9.63;3.38;;;615.30;1408.00;;;;;;4995768;28;20022;-78
2021/06/02 13:22:21;;;;;;;6.82;2.90;;;640.20;1382.40;;;;;;4978646;28;20030;-76
2021/06/02 13:24:47;;;;;;;6.28;2.83;;;640.10;1408.00;;;;;;4979051;28;20053;-77
2021/06/02 13:27:15;;;;;;;6.85;3.70;;;640.10;1408.00;;;;;;4980000;28;20026;-81
2021/06/02 13:30:00;;;;;;;6.07;3.88;;;640.40;1408.00;;;;;;4979224;28;20390;-78
2021/06/02 13:32:26;;;;;;;10.27;4.57;;;665.60;1331.20;;;;;;4978311;28;20027;-76
2021/06/02 13:34:51;;;;;;;9.43;3.40;;;665.70;1356.80;;;;;;4995195;28;20073;-79
2021/06/02 13:37:20;;;;;;;6.90;3.05;;;665.90;1280.00;;;;;;4993397;28;20050;-77
2021/06/02 13:40:09;;;;;;;6.78;2.83;;;666.00;1331.20;;;;;;4975823;28;20034;-77
2021/06/02 13:42:35;;;;;;;5.70;3.22;;;665.90;1228.80;;;;;;4994625;28;20019;-80
2021/06/02 13:45:01;;;;;;;5.32;2.70;;;666.00;1177.60;;;;;;4976175;28;20026;-79
2021/06/02 13:47:34;;;;;;;6.28;3.40;;;665.60;1203.20;;;;;;4975681;28;20454;-79
2021/06/02 13:50:15;;;;;;;8.13;3.00;;;640.10;1203.20;;;;;;4973789;28;20497;-75
2021/06/02 13:52:41;;;;;;;9.65;3.70;;;640.60;1254.40;;;;;;4991861;28;20106;-76
2021/06/02 13:55:12;;;;;;;4.97;3.00;;;665.60;1254.40;;;;;;4994847;28;20027;-77
2021/06/02 13:57:41;;;;;;;3.97;2.67;;;640.50;1228.80;;;;;;4993193;28;20034;-77
2021/06/02 14:00:09;;;;;;;7.47;2.95;;;640.70;1254.40;;;;;;4975844;28;20031;-77
2021/06/02 14:02:36;;;;;;;5.38;3.15;;;640.20;1228.80;;;;;;4975945;28;20080;-76
2021/06/02 14:05:05;;;;;;;5.22;3.70;;;640.90;1228.80;;;;;;4975060;28;20366;-75
2021/06/02 14:07:31;;;;;;;7.00;2.40;;;665.90;1228.80;;;;;;4975774;28;20030;-76
2021/06/02 14:09:58;;;;;;;5.88;3.50;;;666.00;1177.60;;;;;;4994278;28;20430;-77
2021/06/02 14:12:24;;;;;;;5.47;2.88;;;666.20;1228.80;;;;;;4974999;28;20077;-76
2021/06/02 14:14:50;;;;;;;4.50;2.75;;;666.20;1254.40;;;;;;4994146;28;20030;-74
2021/06/02 14:17:18;;;;;;;6.57;2.85;;;666.30;1203.20;;;;;;4994655;28;20033;-74
2021/06/02 14:19:45;;;;;;;7.75;3.08;;;691.30;1254.40;;;;;;4994590;28;20088;-76
2021/06/02 14:22:14;;;;;;;6.97;2.67;;;691.60;1203.20;;;;;;4977313;28;20356;-77
2021/06/02 14:24:41;;;;;;;6.88;3.70;;;691.60;1203.20;;;;;;4994872;28;20113;-76
2021/06/02 14:27:07;;;;;;;6.75;3.15;;;691.30;1177.60;;;;;;4976897;28;20026;-75
2021/06/02 14:29:36;;;;;;;5.15;2.95;;;691.40;1177.60;;;;;;4976988;28;20026;-77
2021/06/02 14:32:08;;;;;;;7.07;3.40;;;691.50;1228.80;;;;;;4977126;28;20480;-76
2021/06/02 14:34:34;;;;;;;3.97;2.80;;;666.50;1203.20;;;;;;4977054;28;20431;-76
2021/06/02 14:37:01;;;;;;;8.38;4.18;;;666.50;1280.00;;;;;;4976945;28;20267;-75
2021/06/02 14:39:27;;;;;;;11.18;5.70;;;691.40;1254.40;;;;;;4977347;28;20394;-78
2021/06/02 14:41:55;;;;;;;8.25;4.07;;;691.40;1228.80;;;;;;4976831;28;20022;-76
2021/06/02 14:44:21;;;;;;;8.85;5.03;;;691.30;1254.40;;;;;;4977092;28;20085;-74
2021/06/02 14:46:47;;;;;;;6.68;4.72;;;691.40;1280.00;;;;;;4976426;28;20036;-77
2021/06/02 14:49:13;;;;;;;13.32;4.25;;;691.70;1280.00;;;;;;4994285;28;20105;-76
2021/06/02 14:51:39;;;;;;;6.00;4.15;;;691.30;1280.00;;;;;;4994404;28;20034;-76
2021/06/02 14:54:06;;;;;;;9.48;3.70;;;691.20;1280.00;;;;;;4976781;28;20026;-75
2021/06/02 14:56:32;;;;;;;8.70;4.20;;;666.40;1280.00;;;;;;4977009;28;20065;-74
2021/06/02 14:58:58;;;;;;;6.22;3.80;;;666.50;1280.00;;;;;;4976969;28;20073;-75
2021/06/02 15:01:28;;;;;;;6.30;3.70;;;666.30;1280.00;;;;;;4976710;28;20057;-75
2021/06/02 15:03:54;;;;;;;11.55;3.47;;;666.20;1305.60;;;;;;4994248;28;20108;-77
2021/06/02 15:06:21;;;;;;;9.43;3.45;;;666.20;1280.00;;;;;;4976836;28;20034;-76
2021/06/02 15:08:46;;;;;;;6.32;3.08;;;666.20;1280.00;;;;;;4993987;28;20109;-75
2021/06/02 15:11:12;;;;;;;7.05;3.03;;;665.90;1280.00;;;;;;4976813;28;20117;-77
2021/06/02 15:13:38;;;;;;;7.68;2.97;;;665.80;1280.00;;;;;;4976679;28;20026;-76
2021/06/02 15:16:05;;;;;;;5.43;3.30;;;665.70;1254.40;;;;;;4976166;28;20077;-78
2021/06/02 15:18:32;;;;;;;4.90;3.00;;;665.60;1254.40;;;;;;4976647;28;20033;-77
2021/06/02 15:21:00;;;;;;;7.32;3.45;;;665.70;1280.00;;;;;;4976754;28;20136;-75
2021/06/02 15:23:26;;;;;;;4.85;3.17;;;640.70;1254.40;;;;;;4976377;28;20385;-76
2021/06/02 15:25:54;;;;;;;5.88;3.00;;;640.50;1254.40;;;;;;4976734;28;20034;-76
2021/06/02 15:28:31;;;;;;;7.43;3.70;;;640.50;1254.40;;;;;;4976711;28;20026;-78
2021/06/02 15:30:58;;;;;;;6.50;3.72;;;640.40;1280.00;;;;;;4976313;28;20038;-78
2021/06/02 15:33:24;;;;;;;7.28;3.58;;;640.30;1305.60;;;;;;4994072;28;20019;-76
2021/06/02 15:35:55;;;;;;;8.52;3.22;;;640.20;1305.60;;;;;;4994076;28;20030;-76
2021/06/02 15:38:21;;;;;;;6.50;3.17;;;615.30;1280.00;;;;;;4976141;28;20054;-76
2021/06/02 15:40:47;;;;;;;5.22;3.13;;;640.40;1280.00;;;;;;4976530;28;20489;-76
2021/06/02 15:43:15;;;;;;;9.57;4.18;;;615.00;1305.60;;;;;;4994046;28;20031;-77
2021/06/02 15:45:42;;;;;;;8.88;5.07;;;614.90;1331.20;;;;;;4976576;28;20518;-77
2021/06/02 15:48:08;;;;;;;8.07;3.40;;;614.90;1331.20;;;;;;4976487;28;20045;-77
2021/06/02 15:50:33;;;;;;;6.75;4.35;;;614.60;1331.20;;;;;;4975814;28;20047;-78
2021/06/02 15:53:02;;;;;;;8.57;3.63;;;614.60;1331.20;;;;;;4976297;28;20081;-78